createdAt,value
2019-01-04T00:00:16.198Z,15.17
2019-01-04T00:02:45.123Z,15.33
2019-01-04T00:05:14.793Z,15.40
2019-01-04T00:07:43.516Z,15.07
2019-01-04T00:10:12.357Z,15.13
2019-01-04T00:12:41.104Z,15.03
2019-01-04T00:15:09.780Z,14.60
2019-01-04T00:17:38.457Z,14.57
2019-01-04T00:20:07.041Z,14.03
2019-01-04T00:22:35.691Z,14.93
2019-01-04T00:25:04.446Z,15.00
2019-01-04T00:27:33.031Z,14.83
2019-01-04T00:30:01.796Z,14.40
2019-01-04T00:32:30.536Z,14.30
2019-01-04T00:34:59.426Z,14.47
2019-01-04T00:37:28.055Z,13.53
2019-01-04T00:39:56.883Z,13.37
2019-01-04T00:42:25.467Z,14.43
2019-01-04T00:44:54.210Z,14.00
2019-01-04T00:47:25.207Z,14.53
2019-01-04T00:49:56.017Z,13.63
2019-01-04T00:52:24.751Z,14.13
2019-01-04T00:54:53.677Z,13.03
2019-01-04T00:57:27.868Z,13.90
2019-01-04T01:00:13.524Z,13.33
2019-01-04T01:03:00.657Z,13.20
2019-01-04T01:05:45.131Z,13.97
2019-01-04T01:08:41.662Z,14.50
2019-01-04T01:11:38.341Z,13.47
2019-01-04T01:14:36.821Z,14.60
2019-01-04T01:17:27.641Z,14.90
2019-01-04T01:20:08.250Z,14.33
2019-01-04T01:23:05.151Z,14.47
2019-01-04T01:26:01.848Z,14.83
2019-01-04T01:28:57.038Z,13.63
2019-01-04T01:31:37.279Z,14.47
2019-01-04T01:34:26.099Z,15.10
2019-01-04T01:37:16.941Z,13.43
2019-01-04T01:40:14.529Z,13.90
2019-01-04T01:43:01.049Z,14.33
2019-01-04T01:45:51.869Z,14.87
2019-01-04T01:48:28.385Z,14.00
2019-01-04T01:51:21.941Z,13.93
2019-01-04T01:53:50.561Z,13.93
2019-01-04T01:56:19.448Z,14.00
2019-01-04T01:58:48.426Z,13.93
2019-01-04T02:01:18.297Z,14.70
2019-01-04T02:03:46.901Z,14.87
2019-01-04T02:06:15.627Z,14.87
2019-01-04T02:08:44.585Z,13.87
2019-01-04T02:11:13.314Z,14.57
2019-01-04T02:13:41.969Z,14.90
2019-01-04T02:16:10.575Z,13.73
2019-01-04T02:18:39.421Z,14.60
2019-01-04T02:21:07.944Z,13.90
2019-01-04T02:23:36.734Z,14.73
2019-01-04T02:26:05.474Z,14.90
2019-01-04T02:28:34.149Z,14.43
2019-01-04T02:31:02.792Z,14.23
2019-01-04T02:33:31.412Z,14.50
2019-01-04T02:36:00.018Z,13.97
2019-01-04T02:38:29.865Z,14.73
2019-01-04T02:40:58.410Z,13.03
2019-01-04T02:43:27.190Z,13.27
2019-01-04T02:45:55.924Z,14.33
2019-01-04T02:48:24.544Z,13.67
2019-01-04T02:50:53.025Z,14.37
2019-01-04T02:53:21.636Z,14.20
2019-01-04T02:55:50.413Z,14.00
2019-01-04T02:58:19.140Z,13.80
2019-01-04T03:00:49.141Z,13.77
2019-01-04T03:03:17.792Z,13.93
2019-01-04T03:05:46.576Z,13.93
2019-01-04T03:08:17.490Z,13.87
2019-01-04T03:10:46.142Z,13.80
2019-01-04T03:13:14.702Z,13.40
2019-01-04T03:15:43.682Z,13.57
2019-01-04T03:18:12.302Z,14.20
2019-01-04T03:20:41.145Z,13.50
2019-01-04T03:23:09.722Z,13.97
2019-01-04T03:25:38.519Z,13.27
2019-01-04T03:28:07.125Z,13.93
2019-01-04T03:30:36.730Z,12.60
2019-01-04T03:33:05.492Z,13.83
2019-01-04T03:35:34.373Z,13.83
2019-01-04T03:38:02.970Z,12.73
2019-01-04T03:40:31.601Z,13.27
2019-01-04T03:43:01.228Z,12.60
2019-01-04T03:45:29.979Z,12.33
2019-01-04T03:47:58.551Z,12.50
2019-01-04T03:50:27.520Z,12.57
2019-01-04T03:52:56.356Z,13.07
2019-01-04T03:55:24.885Z,13.00
2019-01-04T03:57:53.446Z,14.13
2019-01-04T04:00:22.045Z,13.13
2019-01-04T04:02:53.352Z,13.30
2019-01-04T04:05:22.133Z,13.23
2019-01-04T04:07:53.697Z,12.93
2019-01-04T04:10:23.657Z,13.23
2019-01-04T04:12:52.682Z,12.97
2019-01-04T04:15:21.404Z,13.80
2019-01-04T04:17:53.025Z,13.97
2019-01-04T04:20:21.794Z,14.40
2019-01-04T04:22:50.518Z,14.03
2019-01-04T04:25:19.780Z,14.70
2019-01-04T04:27:51.168Z,13.97
2019-01-04T04:30:19.839Z,13.53
2019-01-04T04:32:49.604Z,14.30
2019-01-04T04:35:18.499Z,14.43
2019-01-04T04:37:49.380Z,14.03
2019-01-04T04:40:17.966Z,14.03
2019-01-04T04:42:48.640Z,15.37
2019-01-04T04:45:20.794Z,14.63
2019-01-04T04:47:51.756Z,14.70
2019-01-04T04:50:20.361Z,14.37
2019-01-04T04:52:49.025Z,14.00
2019-01-04T04:55:18.794Z,15.20
2019-01-04T04:57:47.421Z,14.00
2019-01-04T05:00:16.059Z,14.07
2019-01-04T05:02:47.145Z,14.37
2019-01-04T05:05:15.781Z,15.47
2019-01-04T05:07:44.389Z,13.83
2019-01-04T05:10:13.122Z,14.00
2019-01-04T05:12:41.956Z,15.23
2019-01-04T05:15:10.661Z,13.60
2019-01-04T05:17:39.224Z,14.63
2019-01-04T05:20:10.984Z,14.87
2019-01-04T05:22:39.822Z,13.80
2019-01-04T05:25:08.409Z,13.87
2019-01-04T05:27:37.340Z,14.27
2019-01-04T05:30:06.090Z,14.23
2019-01-04T05:32:34.737Z,14.50
2019-01-04T05:35:04.507Z,14.47
2019-01-04T05:37:33.212Z,13.43
2019-01-04T05:40:01.914Z,14.90
2019-01-04T05:42:31.617Z,14.20
2019-01-04T05:45:00.463Z,14.30
2019-01-04T05:47:29.122Z,14.97
2019-01-04T05:49:58.844Z,14.07
2019-01-04T05:52:27.497Z,13.50
2019-01-04T05:54:56.302Z,13.80
2019-01-04T05:57:25.201Z,14.43
2019-01-04T05:59:53.727Z,14.17
2019-01-04T06:02:23.449Z,14.67
2019-01-04T06:04:51.961Z,14.23
2019-01-04T06:07:20.703Z,14.53
2019-01-04T06:09:50.231Z,14.77
2019-01-04T06:12:18.778Z,14.70
2019-01-04T06:14:47.394Z,14.77
2019-01-04T06:17:16.205Z,15.57
2019-01-04T06:19:44.756Z,14.40
2019-01-04T06:22:13.311Z,14.60
2019-01-04T06:24:42.264Z,14.23
2019-01-04T06:27:10.950Z,14.47
2019-01-04T06:29:46.805Z,14.00
2019-01-04T06:32:15.502Z,14.07
2019-01-04T06:34:44.143Z,14.60
2019-01-04T06:37:12.907Z,14.23
2019-01-04T06:39:41.638Z,15.23
2019-01-04T06:42:10.223Z,16.43
2019-01-04T06:44:39.901Z,14.33
2019-01-04T06:47:10.488Z,13.80
2019-01-04T06:49:39.130Z,16.03
2019-01-04T06:52:07.674Z,16.37
2019-01-04T06:54:53.822Z,15.57
2019-01-04T06:57:22.441Z,15.33
2019-01-04T06:59:51.048Z,13.73
2019-01-04T07:02:19.775Z,14.90
2019-01-04T07:04:48.451Z,15.07
2019-01-04T07:07:19.046Z,14.30
2019-01-04T07:09:47.678Z,15.63
2019-01-04T07:12:16.153Z,14.83
2019-01-04T07:14:45.778Z,15.83
2019-01-04T07:17:14.498Z,16.13
2019-01-04T07:19:44.014Z,18.93
2019-01-04T07:22:12.646Z,18.97
2019-01-04T07:24:41.412Z,18.67
2019-01-04T07:27:09.956Z,17.30
2019-01-04T07:29:38.531Z,21.60
2019-01-04T07:32:07.165Z,16.50
2019-01-04T07:34:35.831Z,15.93
2019-01-04T07:37:04.356Z,19.40
2019-01-04T07:39:32.994Z,27.43
2019-01-04T07:42:01.646Z,24.23
2019-01-04T07:44:30.342Z,21.37
2019-01-04T07:47:00.137Z,16.63
2019-01-04T07:49:28.729Z,15.50
2019-01-04T07:51:58.629Z,14.40
2019-01-04T07:54:27.327Z,15.80
2019-01-04T07:56:57.108Z,16.27
2019-01-04T07:59:25.821Z,18.23
2019-01-04T08:01:55.478Z,18.60
2019-01-04T08:04:24.013Z,16.43
2019-01-04T08:06:52.658Z,15.20
2019-01-04T08:09:23.447Z,15.47
2019-01-04T08:11:52.041Z,15.30
2019-01-04T08:14:20.541Z,16.47
2019-01-04T08:16:49.158Z,14.80
2019-01-04T08:19:17.802Z,14.17
2019-01-04T08:21:48.485Z,14.67
2019-01-04T08:24:17.158Z,15.27
2019-01-04T08:26:45.866Z,13.83
2019-01-04T08:29:14.565Z,14.00
2019-01-04T08:31:43.258Z,14.00
2019-01-04T08:34:11.771Z,13.23
2019-01-04T08:36:40.396Z,13.30
2019-01-04T08:39:09.498Z,12.80
2019-01-04T08:41:38.041Z,12.97
2019-01-04T08:44:06.874Z,11.67
2019-01-04T08:46:35.385Z,11.03
2019-01-04T08:49:04.208Z,12.23
2019-01-04T08:51:32.761Z,12.20
2019-01-04T08:54:04.323Z,11.60
2019-01-04T08:56:33.897Z,11.80
2019-01-04T08:59:03.528Z,11.97
2019-01-04T09:01:32.003Z,11.13
2019-01-04T09:04:00.739Z,11.37
2019-01-04T09:06:29.363Z,11.73
2019-01-04T09:09:00.054Z,11.50
2019-01-04T09:11:29.267Z,12.90
2019-01-04T09:13:59.302Z,14.13
2019-01-04T09:16:27.890Z,13.53
2019-01-04T09:18:56.519Z,13.47
2019-01-04T09:21:25.394Z,12.80
2019-01-04T09:23:54.091Z,13.77
2019-01-04T09:26:22.657Z,14.63
2019-01-04T09:28:51.389Z,14.13
2019-01-04T09:31:21.031Z,12.70
2019-01-04T09:33:49.567Z,12.97
2019-01-04T09:36:18.110Z,12.80
2019-01-04T09:38:49.944Z,12.60
2019-01-04T09:41:25.176Z,12.70
2019-01-04T09:43:55.202Z,12.87
2019-01-04T09:46:27.329Z,13.13
2019-01-04T09:48:57.396Z,12.50
2019-01-04T09:51:26.428Z,13.17
2019-01-04T09:53:55.338Z,12.97
2019-01-04T09:56:24.119Z,12.37
2019-01-04T09:58:52.892Z,12.43
2019-01-04T10:01:21.523Z,11.73
2019-01-04T10:03:51.443Z,11.83
2019-01-04T10:06:23.384Z,11.60
2019-01-04T10:08:58.618Z,11.93
2019-01-04T10:11:31.527Z,11.07
2019-01-04T10:14:00.822Z,10.93
2019-01-04T10:16:50.137Z,10.43
2019-01-04T10:19:56.442Z,9.87
2019-01-04T10:22:28.698Z,10.23
2019-01-04T10:25:46.957Z,10.13
2019-01-04T10:28:09.328Z,10.40
2019-01-04T10:31:32.982Z,10.17
2019-01-04T10:34:13.801Z,10.67
2019-01-04T10:38:07.074Z,9.80
2019-01-04T10:40:13.805Z,10.27
2019-01-04T10:43:40.880Z,10.03
2019-01-04T10:47:56.778Z,10.43
2019-01-04T11:04:22.397Z,10.07
2019-01-04T11:07:09.819Z,10.50
2019-01-04T11:09:47.741Z,9.93
2019-01-04T13:10:26.275Z,7.23
2019-01-04T13:12:57.810Z,7.10
2019-01-04T13:15:29.162Z,7.33
2019-01-04T13:17:57.996Z,7.47
2019-01-04T13:20:27.361Z,6.53
2019-01-04T13:22:59.645Z,6.90
2019-01-04T13:25:29.249Z,6.40
2019-01-04T17:02:06.944Z,8.53
2019-01-04T17:04:47.842Z,7.53
2019-01-04T17:11:00.792Z,5.57
2019-01-04T17:13:43.529Z,6.00
2019-01-04T17:16:13.486Z,6.33
2019-01-04T17:19:19.115Z,6.43
2019-01-04T17:22:46.459Z,6.33
2019-01-04T17:25:33.893Z,5.90
2019-01-04T17:30:45.223Z,5.86
2019-01-04T17:33:17.488Z,6.67
2019-01-04T17:35:44.454Z,6.20
2019-01-04T17:38:11.994Z,6.33
2019-01-04T17:40:38.671Z,6.30
2019-01-04T17:43:22.094Z,10.67
2019-01-04T17:46:05.601Z,9.00
2019-01-04T17:48:34.896Z,6.17
2019-01-04T20:49:33.554Z,8.17
2019-01-04T20:52:19.578Z,7.50
2019-01-04T20:55:08.490Z,8.07
2019-01-04T20:57:54.708Z,8.00
2019-01-04T21:00:39.723Z,8.43
2019-01-04T21:03:30.369Z,9.50
2019-01-04T21:06:25.045Z,8.57
2019-01-04T21:09:20.133Z,8.73
2019-01-04T21:12:15.380Z,8.03
2019-01-04T21:15:10.457Z,8.33
2019-01-04T21:17:57.577Z,8.43
2019-01-04T21:20:38.674Z,8.70
2019-01-04T21:23:27.649Z,8.57
2019-01-04T21:26:12.453Z,9.43
2019-01-04T21:28:58.470Z,9.80
2019-01-04T21:31:46.798Z,9.17
2019-01-04T21:34:33.214Z,9.13
2019-01-04T21:37:11.964Z,8.27
2019-01-04T21:40:04.473Z,8.10
2019-01-04T21:42:43.621Z,8.07
2019-01-04T21:45:44.998Z,8.20
2019-01-04T21:48:31.165Z,8.67
2019-01-04T21:51:17.499Z,8.90
2019-01-04T21:54:14.667Z,8.63
2019-01-04T21:57:19.118Z,8.93
2019-01-04T22:00:05.157Z,7.90
2019-01-04T22:02:49.914Z,8.70
2019-01-04T22:05:38.770Z,8.50
2019-01-04T22:08:33.059Z,9.13
2019-01-04T22:11:34.450Z,9.93
2019-01-04T22:14:17.468Z,8.57
2019-01-04T22:17:02.305Z,7.80
2019-01-04T22:19:57.620Z,7.57
2019-01-04T22:22:42.298Z,7.40
2019-01-04T22:25:26.764Z,7.53
2019-01-04T22:28:03.622Z,7.33
2019-01-04T22:30:52.609Z,7.07
2019-01-04T22:33:51.438Z,7.63
2019-01-04T22:36:38.012Z,7.17
2019-01-04T22:39:56.917Z,7.23
2019-01-04T22:42:41.600Z,7.67
2019-01-04T22:45:28.747Z,8.73
2019-01-04T22:48:24.366Z,8.03
2019-01-04T22:51:25.715Z,7.57
2019-01-04T22:54:11.878Z,7.70
2019-01-04T22:57:00.462Z,7.00
2019-01-04T22:59:52.472Z,6.20
2019-01-04T23:02:50.570Z,6.30
2019-01-04T23:05:41.641Z,6.53
2019-01-04T23:08:42.779Z,7.00
2019-01-04T23:11:47.082Z,6.43
2019-01-04T23:14:31.692Z,6.70
2019-01-04T23:17:18.320Z,6.63
2019-01-04T23:20:04.325Z,6.73
2019-01-04T23:22:51.225Z,7.30
2019-01-04T23:25:38.443Z,6.70
2019-01-04T23:28:23.181Z,6.20
2019-01-04T23:31:09.336Z,6.13
2019-01-04T23:34:00.956Z,6.60
2019-01-04T23:36:49.718Z,5.60
2019-01-04T23:39:38.721Z,5.70
2019-01-04T23:42:24.688Z,5.40
2019-01-04T23:45:08.786Z,5.40
2019-01-04T23:48:02.801Z,5.37
2019-01-04T23:51:03.705Z,6.00
2019-01-04T23:53:58.675Z,5.80
2019-01-04T23:56:47.602Z,5.30
2019-01-04T23:59:42.941Z,6.00
